Time;durP1;ratioP1;P1;durP2;ratioP2;P2;SDS_P1;SDS_P2;PMS_P1;PMS_P2;Temp;Humidity;BMP_temperature;BMP_pressure;BME280_temperature;BME280_humidity;BME280_pressure;Samples;Min_cycle;Max_cycle;Signal;HPM_P1;HPM_P2
2022/12/17 13:07:28;;;;;;;24.52;16.40;;;-3.80;99.90;;;;;;5071325;28;20501;-69
2022/12/17 13:09:57;;;;;;;21.45;14.80;;;-3.60;99.90;;;;;;5070796;28;20388;-69
2022/12/17 13:12:26;;;;;;;25.35;16.75;;;-3.50;99.90;;;;;;5070620;28;20711;-68
2022/12/17 13:15:14;;;;;;;23.13;16.33;;;-3.40;99.90;;;;;;5052902;28;20396;-70
2022/12/17 13:17:54;;;;;;;24.52;16.67;;;-3.70;99.90;;;;;;5069950;28;20429;-69
2022/12/17 13:20:29;;;;;;;22.20;15.57;;;-3.50;99.90;;;;;;5061771;28;20398;-71
2022/12/17 13:23:32;;;;;;;19.92;15.52;;;-3.40;99.90;;;;;;5059256;28;20389;-71
2022/12/17 13:26:41;;;;;;;22.50;16.50;;;-3.40;99.90;;;;;;5050098;28;20752;-69
2022/12/17 13:29:23;;;;;;;22.57;14.93;;;-3.80;99.90;;;;;;5048897;28;20416;-70
2022/12/17 13:32:01;;;;;;;25.80;16.98;;;-3.60;99.90;;;;;;5049276;28;20393;-70
2022/12/17 13:34:30;;;;;;;22.15;15.55;;;-3.90;99.90;;;;;;5050109;28;20392;-70
2022/12/17 13:37:04;;;;;;;24.05;16.58;;;-4.00;99.90;;;;;;5050540;28;20799;-70
2022/12/17 13:39:29;;;;;;;24.50;16.70;;;-3.70;99.90;;;;;;5050448;28;20941;-70
2022/12/17 13:41:56;;;;;;;24.43;16.50;;;-3.60;99.90;;;;;;5050458;28;20409;-69
2022/12/17 13:44:24;;;;;;;23.07;16.93;;;-3.50;99.90;;;;;;5052526;28;20385;-70
2022/12/17 13:46:51;;;;;;;25.48;16.70;;;-3.70;99.90;;;;;;5051252;28;20829;-70
2022/12/17 13:49:28;;;;;;;24.05;15.43;;;-3.70;99.90;;;;;;5053945;28;20480;-70
2022/12/17 13:52:16;;;;;;;22.50;16.00;;;-4.00;99.90;;;;;;5054621;28;20468;-70
2022/12/17 13:54:42;;;;;;;26.55;18.13;;;-3.80;99.90;;;;;;5053674;28;20377;-70
2022/12/17 13:57:22;;;;;;;25.20;17.23;;;-3.70;99.90;;;;;;5054608;28;20380;-70
2022/12/17 13:59:50;;;;;;;21.27;15.77;;;-3.80;99.90;;;;;;5054742;28;20389;-70
2022/12/17 14:02:27;;;;;;;24.25;16.92;;;-3.80;99.90;;;;;;5054207;28;20460;-69
2022/12/17 14:04:55;;;;;;;26.55;17.40;;;-3.70;99.90;;;;;;5053868;28;20381;-69
2022/12/17 14:07:22;;;;;;;24.80;17.13;;;-3.50;99.90;;;;;;5054131;28;20522;-68
2022/12/17 14:09:48;;;;;;;25.70;17.55;;;-3.50;99.90;;;;;;5066886;28;20376;-69
2022/12/17 14:12:20;;;;;;;26.57;16.97;;;-3.70;99.90;;;;;;5073969;28;20383;-69
2022/12/17 14:14:48;;;;;;;25.65;17.20;;;-3.60;99.90;;;;;;5073221;28;20375;-71
2022/12/17 14:17:19;;;;;;;26.77;16.70;;;-3.60;99.90;;;;;;5073768;28;20371;-70
2022/12/17 14:19:45;;;;;;;24.10;15.95;;;-3.60;99.90;;;;;;5072372;28;20380;-70
2022/12/17 14:22:19;;;;;;;22.02;15.73;;;-3.70;99.90;;;;;;5073608;28;20384;-69
2022/12/17 14:24:45;;;;;;;23.77;16.95;;;-3.70;99.90;;;;;;5072398;28;20731;-69
2022/12/17 14:27:29;;;;;;;23.85;17.08;;;-3.50;99.90;;;;;;5073477;28;20854;-69
2022/12/17 14:29:55;;;;;;;25.55;18.10;;;-3.60;99.90;;;;;;5071793;28;20391;-69
2022/12/17 14:32:23;;;;;;;25.33;18.13;;;-3.30;99.90;;;;;;5073435;28;20750;-70
2022/12/17 14:34:49;;;;;;;26.45;17.80;;;-3.20;99.90;;;;;;5072852;28;20383;-70
2022/12/17 14:37:18;;;;;;;27.52;18.55;;;-3.40;99.90;;;;;;5073344;28;20388;-70
2022/12/17 14:39:46;;;;;;;27.92;19.80;;;-3.50;99.90;;;;;;5071761;28;20461;-70
2022/12/17 14:42:24;;;;;;;27.73;19.45;;;-3.20;99.90;;;;;;5073424;28;20437;-70
2022/12/17 14:45:19;;;;;;;29.70;18.83;;;-3.30;99.90;;;;;;5072904;28;21063;-69
2022/12/17 14:47:52;;;;;;;27.38;18.35;;;-3.10;99.90;;;;;;5073232;28;20436;-69
2022/12/17 14:50:17;;;;;;;27.05;18.50;;;-3.00;99.90;;;;;;5073134;28;20403;-70
2022/12/17 14:52:54;;;;;;;27.65;19.80;;;-3.30;99.90;;;;;;5072432;28;20411;-69
2022/12/17 14:55:30;;;;;;;25.30;18.50;;;-3.40;99.90;;;;;;5073103;28;20383;-70
2022/12/17 14:58:10;;;;;;;24.52;17.60;;;-3.10;99.90;;;;;;5071869;28;20790;-70
2022/12/17 15:01:04;;;;;;;27.67;18.45;;;-3.40;99.90;;;;;;5071653;28;20380;-69
2022/12/17 15:03:38;;;;;;;26.17;18.02;;;-3.50;99.90;;;;;;5072013;28;20761;-70
2022/12/17 15:06:06;;;;;;;25.77;17.55;;;-3.60;99.90;;;;;;5071021;28;20380;-69
2022/12/17 15:08:34;;;;;;;26.33;17.88;;;-3.50;99.90;;;;;;5072336;28;20411;-69
2022/12/17 15:11:00;;;;;;;27.23;18.73;;;-3.60;99.90;;;;;;5072651;28;20392;-70
2022/12/17 15:13:26;;;;;;;27.65;19.33;;;-3.70;99.90;;;;;;5071810;28;20450;-69
2022/12/17 15:15:51;;;;;;;26.57;19.90;;;-3.60;99.90;;;;;;5072515;28;20434;-71
2022/12/17 15:18:17;;;;;;;29.93;19.70;;;-3.50;99.90;;;;;;5072339;28;20391;-70
2022/12/17 15:20:42;;;;;;;29.57;19.67;;;-3.50;99.90;;;;;;5072295;28;20460;-70
2022/12/17 15:23:17;;;;;;;26.27;17.80;;;-3.40;99.90;;;;;;5070004;28;20391;-70
2022/12/17 15:25:45;;;;;;;27.52;17.90;;;-3.50;99.90;;;;;;5072535;28;20380;-70
2022/12/17 15:28:11;;;;;;;25.05;17.92;;;-3.60;99.90;;;;;;5072452;28;20396;-70
2022/12/17 15:30:37;;;;;;;25.52;17.10;;;-3.60;99.90;;;;;;5072920;28;20388;-70
2022/12/17 15:33:02;;;;;;;26.98;18.35;;;-3.50;99.90;;;;;;5071238;28;20449;-69
2022/12/17 15:35:28;;;;;;;24.50;17.13;;;-3.50;99.90;;;;;;5072280;28;20388;-70
2022/12/17 15:37:54;;;;;;;25.52;17.30;;;-3.50;99.90;;;;;;5072202;28;20884;-70
2022/12/17 15:40:19;;;;;;;26.08;17.80;;;-3.50;99.90;;;;;;5071803;28;20411;-70
2022/12/17 15:45:30;;;;;;;28.35;17.52;;;-3.50;99.90;;;;;;5071930;28;20437;-69
2022/12/17 15:47:55;;;;;;;26.73;18.13;;;-3.50;99.90;;;;;;5071890;28;20411;-70
2022/12/17 15:50:21;;;;;;;25.38;17.00;;;-3.60;99.90;;;;;;5071730;28;20384;-70
2022/12/17 15:52:50;;;;;;;27.10;16.98;;;-3.60;99.90;;;;;;5071325;28;20396;-70
2022/12/17 15:55:15;;;;;;;23.30;16.75;;;-3.60;99.90;;;;;;5071883;28;20379;-70
2022/12/17 15:57:42;;;;;;;25.13;17.60;;;-3.70;99.90;;;;;;5072140;28;20384;-71
2022/12/17 16:00:08;;;;;;;24.27;18.30;;;-3.50;99.90;;;;;;5070539;28;20843;-71
2022/12/17 16:02:34;;;;;;;25.20;17.70;;;-3.50;99.90;;;;;;5071297;28;20384;-70
2022/12/17 16:05:00;;;;;;;26.35;18.63;;;-3.50;99.90;;;;;;5070006;28;20441;-70
2022/12/17 16:07:25;;;;;;;26.37;18.37;;;-3.40;99.90;;;;;;5063277;28;20411;-70
2022/12/17 16:09:51;;;;;;;26.17;18.33;;;-3.80;99.90;;;;;;5057844;28;20389;-71
2022/12/17 16:12:17;;;;;;;28.77;20.30;;;-3.80;99.90;;;;;;5051329;28;20932;-71
2022/12/17 16:14:42;;;;;;;28.40;19.83;;;-3.70;99.90;;;;;;5064200;28;20460;-70
2022/12/17 16:17:08;;;;;;;27.65;20.10;;;-3.60;99.90;;;;;;5068289;28;20384;-70
2022/12/17 16:19:33;;;;;;;30.65;20.80;;;-3.70;99.90;;;;;;5071324;28;20391;-70
2022/12/17 16:21:59;;;;;;;29.95;20.55;;;-3.60;99.90;;;;;;5070133;28;20399;-71
2022/12/17 16:24:26;;;;;;;27.02;18.98;;;-3.70;99.90;;;;;;5070438;28;20918;-71
2022/12/17 16:26:52;;;;;;;27.25;18.58;;;-3.60;99.90;;;;;;5071084;28;20892;-70
2022/12/17 16:29:18;;;;;;;28.00;19.60;;;-3.70;99.90;;;;;;5061931;28;20393;-70
2022/12/17 16:31:45;;;;;;;26.35;19.00;;;-3.80;99.90;;;;;;5063269;28;20384;-71
2022/12/17 16:34:11;;;;;;;26.17;19.40;;;-3.80;99.90;;;;;;5070568;28;20437;-71
2022/12/17 16:36:41;;;;;;;27.63;19.33;;;-3.80;99.90;;;;;;5071056;28;20710;-70
2022/12/17 16:39:07;;;;;;;27.30;18.38;;;-2.80;99.90;;;;;;5069730;28;20449;-70
2022/12/17 16:41:33;;;;;;;27.63;19.33;;;-3.90;99.90;;;;;;5070725;28;20426;-70
2022/12/17 16:43:59;;;;;;;30.27;20.40;;;-3.80;99.90;;;;;;5070141;28;20429;-70
2022/12/17 16:46:35;;;;;;;27.13;19.58;;;-3.70;99.90;;;;;;5071010;28;20912;-70
2022/12/17 16:49:10;;;;;;;29.13;20.90;;;-4.00;99.90;;;;;;5070062;28;21272;-70
2022/12/17 16:51:35;;;;;;;30.23;20.42;;;-4.00;99.90;;;;;;5070863;28;20372;-69
2022/12/17 16:54:10;;;;;;;32.77;22.10;;;-4.10;99.90;;;;;;5069940;28;20415;-70
2022/12/17 16:56:36;;;;;;;31.58;19.90;;;-3.90;99.90;;;;;;5070758;28;20375;-69
2022/12/17 16:59:03;;;;;;;31.52;19.55;;;-3.90;99.90;;;;;;5070566;28;20830;-69
2022/12/17 17:01:30;;;;;;;30.73;19.70;;;-4.00;99.90;;;;;;5070578;28;20461;-69
2022/12/17 17:03:56;;;;;;;27.98;19.33;;;-3.90;99.90;;;;;;5069994;28;20380;-70
2022/12/17 17:06:22;;;;;;;30.30;21.42;;;-4.00;99.90;;;;;;5070555;28;20444;-69
2022/12/17 17:08:48;;;;;;;27.45;18.45;;;-3.90;99.90;;;;;;5065554;28;20787;-70
2022/12/17 17:11:20;;;;;;;29.00;18.90;;;-4.00;99.90;;;;;;5050502;28;20452;-70
2022/12/17 17:13:47;;;;;;;33.35;21.88;;;-4.10;99.90;;;;;;5048629;28;20488;-70
2022/12/17 17:16:12;;;;;;;28.85;20.50;;;-4.10;99.90;;;;;;5050404;28;20396;-70
2022/12/17 17:18:38;;;;;;;28.00;19.43;;;-4.00;99.90;;;;;;5050445;28;20480;-71
2022/12/17 17:21:22;;;;;;;31.00;20.50;;;-4.00;99.90;;;;;;5049215;28;20389;-70
2022/12/17 17:23:53;;;;;;;35.30;23.67;;;-3.80;99.90;;;;;;5049402;28;20377;-70
2022/12/17 17:26:19;;;;;;;32.35;21.80;;;-3.80;99.90;;;;;;5050750;28;20461;-70
2022/12/17 17:28:45;;;;;;;33.67;22.77;;;-3.80;99.90;;;;;;5032482;28;20943;-71
2022/12/17 17:31:13;;;;;;;33.28;22.67;;;-3.90;99.90;;;;;;5050330;28;20420;-71
2022/12/17 17:33:45;;;;;;;32.47;21.40;;;-3.90;99.90;;;;;;5049643;28;20396;-70
2022/12/17 17:36:14;;;;;;;34.33;22.23;;;-3.80;99.90;;;;;;5050328;28;20435;-70
2022/12/17 17:38:40;;;;;;;32.08;21.15;;;-3.70;99.90;;;;;;5050480;28;20385;-71
2022/12/17 17:41:09;;;;;;;34.45;21.30;;;-3.80;99.90;;;;;;5050085;28;20492;-71
2022/12/17 17:43:38;;;;;;;34.13;21.30;;;-3.80;99.90;;;;;;5049463;28;20389;-70
2022/12/17 17:46:08;;;;;;;29.95;19.45;;;-3.80;99.90;;;;;;5050203;28;20400;-70
2022/12/17 17:48:34;;;;;;;29.25;19.00;;;-4.00;99.90;;;;;;5050346;28;20464;-70
2022/12/17 17:51:03;;;;;;;29.88;20.15;;;-3.80;99.90;;;;;;5049973;28;20446;-71
2022/12/17 17:53:28;;;;;;;28.23;20.52;;;-3.80;99.90;;;;;;5049502;28;20377;-71
2022/12/17 17:56:02;;;;;;;29.75;19.75;;;-3.90;99.90;;;;;;5050098;28;20416;-70
2022/12/17 17:58:27;;;;;;;29.95;20.08;;;-3.90;99.90;;;;;;5050090;28;20377;-69
2022/12/17 18:00:53;;;;;;;30.90;20.90;;;-3.90;99.90;;;;;;5049711;28;20392;-71
2022/12/17 18:03:18;;;;;;;32.00;21.40;;;-3.90;99.90;;;;;;5048100;28;20411;-71
2022/12/17 18:05:44;;;;;;;29.83;20.90;;;-3.90;99.90;;;;;;5049967;28;20447;-71
2022/12/17 18:08:09;;;;;;;29.27;21.10;;;-3.80;99.90;;;;;;5049842;28;20840;-70
2022/12/17 18:10:35;;;;;;;33.40;21.90;;;-3.80;99.90;;;;;;5065105;28;20464;-70
2022/12/17 18:15:45;;;;;;;37.78;22.85;;;-4.10;99.90;;;;;;5070009;28;20383;-70
2022/12/17 18:18:10;;;;;;;37.60;22.25;;;-4.20;99.90;;;;;;5068724;28;20392;-71
2022/12/17 18:20:36;;;;;;;35.90;22.45;;;-4.20;99.90;;;;;;5069879;28;20877;-70
2022/12/17 18:23:02;;;;;;;37.80;22.25;;;-4.10;99.90;;;;;;5069247;28;20392;-70
2022/12/17 18:25:27;;;;;;;34.23;21.80;;;-4.20;99.90;;;;;;5066759;28;20432;-70
2022/12/17 18:27:53;;;;;;;38.13;23.03;;;-4.30;99.90;;;;;;5062875;28;20776;-70
2022/12/17 18:30:19;;;;;;;34.33;20.33;;;-4.40;99.90;;;;;;5066830;28;20804;-70
2022/12/17 18:32:45;;;;;;;32.63;21.48;;;-4.60;99.90;;;;;;5061022;28;20387;-71
2022/12/17 18:35:10;;;;;;;33.70;19.90;;;-4.50;99.90;;;;;;5072888;28;20529;-69
2022/12/17 18:37:36;;;;;;;34.17;20.00;;;-4.50;99.90;;;;;;5073277;28;20402;-70
2022/12/17 18:40:03;;;;;;;30.35;19.00;;;-4.40;99.90;;;;;;5073210;28;20794;-70
2022/12/17 18:45:13;;;;;;;29.88;19.38;;;-4.30;99.90;;;;;;5077383;28;20386;-70
2022/12/17 18:47:38;;;;;;;30.40;19.30;;;-4.40;99.90;;;;;;5075273;28;20482;-70
2022/12/17 18:50:04;;;;;;;32.22;19.60;;;-4.60;99.90;;;;;;5071805;28;20383;-71
2022/12/17 18:52:30;;;;;;;35.60;20.92;;;-4.40;99.90;;;;;;5072648;28;20433;-72
2022/12/17 18:54:55;;;;;;;31.27;18.40;;;-4.60;99.90;;;;;;5072756;28;20379;-71
2022/12/17 18:57:21;;;;;;;34.73;19.87;;;-4.70;99.90;;;;;;5072916;28;20542;-70
2022/12/17 18:59:47;;;;;;;29.13;18.50;;;-4.60;99.90;;;;;;5072788;28;20860;-71
2022/12/17 19:02:14;;;;;;;31.23;18.50;;;-4.60;99.90;;;;;;5064417;28;20378;-70
2022/12/17 19:04:40;;;;;;;32.70;18.80;;;-4.70;99.90;;;;;;5072569;28;20862;-70
2022/12/17 19:07:06;;;;;;;32.80;20.35;;;-4.90;99.90;;;;;;5073050;28;20387;-70
2022/12/17 19:09:35;;;;;;;33.97;20.97;;;-4.90;99.90;;;;;;5062067;28;20432;-70
2022/12/17 19:12:03;;;;;;;36.38;20.77;;;-4.80;99.90;;;;;;5052972;28;20377;-71
2022/12/17 19:14:28;;;;;;;35.78;20.98;;;-4.80;99.90;;;;;;5053571;28;20389;-70
2022/12/17 19:16:56;;;;;;;31.98;19.90;;;-4.70;99.90;;;;;;5066740;28;20750;-72
2022/12/17 19:19:24;;;;;;;34.75;22.67;;;-4.60;99.90;;;;;;5061604;28;20381;-71
2022/12/17 19:21:52;;;;;;;30.80;19.65;;;-4.50;99.90;;;;;;5072467;28;20414;-70
2022/12/17 19:24:20;;;;;;;36.67;19.80;;;-4.40;99.90;;;;;;5053995;28;20400;-70
2022/12/17 19:26:45;;;;;;;31.90;20.60;;;-4.60;99.90;;;;;;5065986;28;20889;-70
2022/12/17 19:29:12;;;;;;;30.80;20.27;;;-4.60;99.90;;;;;;5061570;28;20416;-71
2022/12/17 19:31:38;;;;;;;28.20;18.85;;;-4.40;99.90;;;;;;5061373;28;20388;-71
2022/12/17 19:34:06;;;;;;;30.70;19.48;;;-4.40;99.90;;;;;;5071495;28;20474;-71
2022/12/17 19:36:34;;;;;;;26.52;18.20;;;-4.50;99.90;;;;;;5055886;28;20387;-71
2022/12/17 19:39:02;;;;;;;30.30;18.53;;;-4.60;99.90;;;;;;5072499;28;20395;-71
2022/12/17 19:41:30;;;;;;;34.20;20.08;;;-4.50;99.90;;;;;;5072121;28;20896;-71
2022/12/17 19:44:04;;;;;;;29.20;19.15;;;-4.50;99.90;;;;;;5071631;28;20425;-71
2022/12/17 19:46:31;;;;;;;32.50;19.45;;;-4.40;99.90;;;;;;5071317;28;20928;-71
2022/12/17 19:48:57;;;;;;;31.20;19.40;;;-4.40;99.90;;;;;;5071824;28;20812;-71
2022/12/17 19:51:25;;;;;;;33.75;20.83;;;-4.50;99.90;;;;;;5071777;28;20380;-72
2022/12/17 19:53:50;;;;;;;35.83;20.58;;;-4.50;99.90;;;;;;5069933;28;20390;-70
2022/12/17 19:56:22;;;;;;;33.30;21.47;;;-4.70;99.90;;;;;;5072103;28;20387;-70
2022/12/17 19:58:51;;;;;;;35.28;21.13;;;-4.60;99.90;;;;;;5071942;28;20387;-70
2022/12/17 20:01:21;;;;;;;36.30;22.33;;;-4.60;99.90;;;;;;5070538;28;20403;-72
2022/12/17 20:03:48;;;;;;;33.38;21.30;;;-4.40;99.90;;;;;;5070907;28;20388;-70
2022/12/17 20:06:15;;;;;;;35.05;21.13;;;-4.70;99.90;;;;;;5071911;28;20467;-70
2022/12/17 20:08:40;;;;;;;33.03;22.02;;;-4.50;99.90;;;;;;5070574;28;20460;-69
2022/12/17 20:13:58;;;;;;;33.50;21.95;;;-4.50;99.90;;;;;;5056304;28;20434;-70
2022/12/17 20:16:24;;;;;;;37.08;22.63;;;-4.50;99.90;;;;;;5067907;28;20388;-71
2022/12/17 20:18:49;;;;;;;32.60;20.70;;;-4.60;99.90;;;;;;5057477;28;20391;-71
2022/12/17 20:21:15;;;;;;;29.93;20.67;;;-4.40;99.90;;;;;;5056761;28;20385;-71
2022/12/17 20:23:41;;;;;;;34.28;20.67;;;-4.40;99.90;;;;;;5057813;28;20380;-71
2022/12/17 20:26:10;;;;;;;34.50;22.20;;;-4.50;99.90;;;;;;5068434;28;20423;-71
2022/12/17 20:28:36;;;;;;;30.03;20.30;;;-4.50;99.90;;;;;;5069858;28;20894;-71
2022/12/17 20:31:03;;;;;;;33.50;21.05;;;-4.40;99.90;;;;;;5058227;28;20426;-71
2022/12/17 20:33:29;;;;;;;31.73;20.80;;;-4.50;99.90;;;;;;5069735;28;20413;-71
2022/12/17 20:35:55;;;;;;;34.00;21.58;;;-4.50;99.90;;;;;;5071087;28;20376;-72
2022/12/17 20:38:21;;;;;;;33.77;22.43;;;-4.40;99.90;;;;;;5071020;28;21141;-73
2022/12/17 20:40:47;;;;;;;37.90;23.37;;;-4.40;99.90;;;;;;5070731;28;20388;-72
2022/12/17 20:43:13;;;;;;;35.05;22.38;;;-4.40;99.90;;;;;;5069595;28;20387;-71
2022/12/17 20:45:46;;;;;;;30.80;20.57;;;-4.30;99.90;;;;;;5054973;28;20399;-71
2022/12/17 20:48:11;;;;;;;30.48;20.73;;;-4.30;99.90;;;;;;5050037;28;20424;-71
2022/12/17 20:50:41;;;;;;;32.03;20.23;;;-4.20;99.90;;;;;;5058184;28;20383;-71
2022/12/17 20:53:06;;;;;;;32.80;21.30;;;-4.20;99.90;;;;;;5068015;28;20379;-72
2022/12/17 20:55:32;;;;;;;33.88;21.83;;;-4.20;99.90;;;;;;5070468;28;20753;-70
2022/12/17 20:58:05;;;;;;;36.20;21.40;;;-4.40;99.90;;;;;;5070282;28;20398;-70
2022/12/17 21:00:32;;;;;;;37.00;22.57;;;-4.30;99.90;;;;;;5070605;28;20462;-70
2022/12/17 21:03:09;;;;;;;36.15;22.98;;;-4.40;99.90;;;;;;5069542;28;20761;-70
2022/12/17 21:05:35;;;;;;;36.47;22.02;;;-4.30;99.90;;;;;;5071063;28;20384;-70
2022/12/17 21:08:00;;;;;;;31.40;21.63;;;-4.20;99.90;;;;;;5071538;28;20403;-71
2022/12/17 21:10:26;;;;;;;30.73;20.83;;;-4.30;99.90;;;;;;5065223;28;20744;-70
2022/12/17 21:15:54;;;;;;;36.50;21.20;;;-4.40;99.90;;;;;;5073165;28;20375;-72
2022/12/17 21:18:20;;;;;;;32.25;20.02;;;-4.60;99.90;;;;;;5057883;28;20495;-72
2022/12/17 21:21:04;;;;;;;29.92;20.88;;;-4.40;99.90;;;;;;5065365;28;20499;-71
2022/12/17 21:23:30;;;;;;;30.65;20.98;;;-4.60;99.90;;;;;;5064088;28;20786;-72
2022/12/17 21:26:18;;;;;;;31.15;20.10;;;-4.60;99.90;;;;;;5064819;28;20384;-71
2022/12/17 21:28:45;;;;;;;28.05;18.70;;;-4.40;99.90;;;;;;5060442;28;20395;-72
2022/12/17 21:31:17;;;;;;;29.40;19.52;;;-4.40;99.90;;;;;;5061029;28;20382;-70
2022/12/17 21:33:45;;;;;;;26.55;18.23;;;-4.50;99.90;;;;;;5066936;28;20382;-69
2022/12/17 21:36:10;;;;;;;29.23;19.20;;;-4.60;99.90;;;;;;5065796;28;20384;-70
2022/12/17 21:38:36;;;;;;;28.37;17.93;;;-4.40;99.90;;;;;;5060950;28;20458;-71
2022/12/17 21:41:07;;;;;;;28.77;17.73;;;-4.80;99.90;;;;;;5059916;28;20397;-71
2022/12/17 21:43:33;;;;;;;28.80;18.75;;;-4.90;99.90;;;;;;5064478;28;20380;-70
2022/12/17 21:46:06;;;;;;;28.70;19.35;;;-4.90;99.90;;;;;;5057572;28;20456;-71
2022/12/17 21:48:33;;;;;;;28.67;19.42;;;-5.20;99.90;;;;;;5056887;28;20411;-71
2022/12/17 21:51:01;;;;;;;30.40;19.70;;;-5.00;99.90;;;;;;5058659;28;20417;-70
2022/12/17 21:53:27;;;;;;;29.67;19.00;;;-5.00;99.90;;;;;;5062995;28;20923;-71
2022/12/17 21:56:01;;;;;;;28.67;18.73;;;-5.20;99.90;;;;;;5064414;28;20380;-71
2022/12/17 21:58:27;;;;;;;29.38;19.42;;;-5.00;99.90;;;;;;5066344;28;20391;-71
2022/12/17 22:00:52;;;;;;;31.00;19.60;;;-4.70;99.90;;;;;;5061392;28;20407;-70
2022/12/17 22:03:18;;;;;;;28.33;19.13;;;-4.50;99.90;;;;;;5055654;28;20440;-70
2022/12/17 22:05:44;;;;;;;29.05;18.25;;;-4.80;99.90;;;;;;5066480;28;20789;-70
2022/12/17 22:08:11;;;;;;;32.42;19.20;;;-4.70;99.90;;;;;;5052993;28;20415;-70
2022/12/17 22:10:40;;;;;;;27.08;18.08;;;-4.80;99.90;;;;;;5072194;28;20961;-71
2022/12/17 22:15:55;;;;;;;28.55;19.55;;;-4.80;99.90;;;;;;5065261;28;20527;-71
2022/12/17 22:18:21;;;;;;;29.90;18.75;;;-4.90;99.90;;;;;;5068396;28;20396;-71
2022/12/17 22:20:57;;;;;;;30.50;18.98;;;-4.80;99.90;;;;;;5065505;28;20458;-71
2022/12/17 22:23:23;;;;;;;28.92;18.92;;;-4.90;99.90;;;;;;5066739;28;20853;-71
2022/12/17 22:25:48;;;;;;;27.53;18.73;;;-4.90;99.90;;;;;;5059426;28;20419;-71
2022/12/17 22:28:14;;;;;;;27.73;18.40;;;-4.80;99.90;;;;;;5061575;28;20438;-70
2022/12/17 22:33:24;;;;;;;32.03;20.13;;;-5.00;99.90;;;;;;5067724;28;20379;-71
2022/12/17 22:35:49;;;;;;;29.83;19.10;;;-5.00;99.90;;;;;;5056253;28;20377;-71
2022/12/17 22:38:17;;;;;;;30.75;18.83;;;-5.00;99.90;;;;;;5067330;28;20451;-70
2022/12/17 22:40:43;;;;;;;31.38;19.60;;;-5.00;99.90;;;;;;5060790;28;20404;-70
2022/12/17 22:45:59;;;;;;;29.52;19.27;;;-4.80;99.90;;;;;;5069342;28;20382;-71
2022/12/17 22:48:24;;;;;;;28.67;19.63;;;-4.70;99.90;;;;;;5058231;28;20406;-71
2022/12/17 22:50:50;;;;;;;28.00;19.60;;;-4.60;99.90;;;;;;5063360;28;20381;-71
2022/12/17 22:53:15;;;;;;;30.70;20.50;;;-4.70;99.90;;;;;;5062983;28;20467;-71
2022/12/17 22:55:41;;;;;;;25.83;17.87;;;-4.80;99.90;;;;;;5067420;28;20763;-71
2022/12/17 22:58:06;;;;;;;32.87;20.53;;;-4.80;99.90;;;;;;5058713;28;20387;-70
2022/12/17 23:00:35;;;;;;;30.60;19.90;;;-4.60;99.90;;;;;;5065957;28;20400;-70
2022/12/17 23:03:00;;;;;;;30.92;20.48;;;-4.70;99.90;;;;;;5057572;28;20385;-70
2022/12/17 23:05:27;;;;;;;33.97;19.48;;;-4.80;99.90;;;;;;5066007;28;20398;-70
2022/12/17 23:07:53;;;;;;;33.53;19.30;;;-4.70;99.90;;;;;;5055559;28;20409;-70
2022/12/17 23:10:20;;;;;;;33.70;19.97;;;-4.80;99.90;;;;;;5072045;28;20869;-71
2022/12/17 23:12:53;;;;;;;33.10;20.70;;;-4.80;99.90;;;;;;5062662;28;20400;-70
2022/12/17 23:15:38;;;;;;;32.83;21.40;;;-4.90;99.90;;;;;;5063664;28;20392;-70
2022/12/17 23:18:06;;;;;;;30.48;18.90;;;-4.90;99.90;;;;;;5055296;28;20960;-70
2022/12/17 23:20:33;;;;;;;37.20;21.88;;;-4.80;99.90;;;;;;5064063;28;20386;-70
2022/12/17 23:23:00;;;;;;;31.98;19.80;;;-4.60;99.90;;;;;;5061235;28;20482;-71
2022/12/17 23:25:26;;;;;;;31.13;19.42;;;-4.50;99.90;;;;;;5066370;28;21142;-70
2022/12/17 23:27:52;;;;;;;28.88;18.35;;;-4.70;99.90;;;;;;5054235;28;20435;-70
2022/12/17 23:30:18;;;;;;;28.10;18.87;;;-4.60;99.90;;;;;;5052010;28;20472;-70
2022/12/17 23:32:45;;;;;;;28.42;18.02;;;-4.80;99.90;;;;;;5059144;28;20375;-70
2022/12/17 23:35:11;;;;;;;27.90;17.83;;;-4.70;99.90;;;;;;5059648;28;20435;-70
2022/12/17 23:37:37;;;;;;;27.80;18.83;;;-4.80;99.90;;;;;;5067291;28;20437;-70
2022/12/17 23:40:03;;;;;;;26.67;17.20;;;-4.90;99.90;;;;;;5053346;28;20902;-70
2022/12/17 23:42:29;;;;;;;29.33;17.75;;;-4.90;99.90;;;;;;5064617;28;20412;-70
2022/12/17 23:44:54;;;;;;;27.43;17.33;;;-5.20;99.90;;;;;;5060691;28;20930;-70
2022/12/17 23:47:20;;;;;;;29.90;18.80;;;-5.20;99.90;;;;;;5058011;28;20385;-70
2022/12/17 23:49:46;;;;;;;27.37;17.17;;;-5.20;99.90;;;;;;5066324;28;20466;-70
2022/12/17 23:52:11;;;;;;;24.93;16.83;;;-5.40;99.90;;;;;;5054733;28;20391;-70
2022/12/17 23:54:37;;;;;;;25.25;17.00;;;-5.50;99.90;;;;;;5063146;28;20377;-70
2022/12/17 23:57:02;;;;;;;28.90;17.60;;;-5.50;99.90;;;;;;5051469;28;20478;-70
2022/12/17 23:59:28;;;;;;;24.98;15.93;;;-5.70;99.90;;;;;;5051551;28;20955;-70
